createdAt,value
2018-05-05T00:00:35.525Z,80.90
2018-05-05T00:03:02.971Z,80.20
2018-05-05T00:05:30.419Z,80.80
2018-05-05T00:07:57.876Z,80.80
2018-05-05T00:10:26.110Z,80.70
2018-05-05T00:12:53.544Z,80.70
2018-05-05T00:15:21.001Z,80.80
2018-05-05T00:17:48.447Z,80.80
2018-05-05T00:20:15.886Z,80.90
2018-05-05T00:22:44.357Z,81.20
2018-05-05T00:25:11.819Z,81.40
2018-05-05T00:27:39.248Z,81.40
2018-05-05T00:30:09.803Z,81.40
2018-05-05T00:32:38.003Z,81.80
2018-05-05T00:35:05.461Z,81.80
2018-05-05T00:37:32.887Z,81.80
2018-05-05T00:40:01.096Z,82.00
2018-05-05T00:42:28.546Z,82.00
2018-05-05T00:44:55.999Z,81.90
2018-05-05T00:47:23.427Z,81.70
2018-05-05T00:49:51.656Z,81.70
2018-05-05T00:52:19.095Z,81.60
2018-05-05T00:54:49.973Z,82.20
2018-05-05T00:57:17.410Z,81.70
2018-05-05T00:59:48.191Z,83.00
2018-05-05T01:02:16.416Z,82.00
2018-05-05T01:04:44.650Z,82.30
2018-05-05T01:07:12.856Z,81.80
2018-05-05T01:09:40.307Z,81.80
2018-05-05T01:12:07.764Z,82.00
2018-05-05T01:14:35.197Z,82.30
2018-05-05T01:17:02.709Z,82.20
2018-05-05T01:19:30.158Z,81.90
2018-05-05T01:21:57.603Z,82.10
2018-05-05T01:24:25.057Z,82.00
2018-05-05T01:26:52.484Z,82.00
2018-05-05T01:29:19.934Z,81.60
2018-05-05T01:31:48.139Z,82.20
2018-05-05T01:34:15.592Z,82.20
2018-05-05T01:36:43.028Z,81.80
2018-05-05T01:39:10.476Z,81.30
2018-05-05T01:41:38.693Z,81.40
2018-05-05T01:44:06.136Z,81.40
2018-05-05T01:46:33.576Z,82.00
2018-05-05T01:49:01.018Z,82.60
2018-05-05T01:51:29.240Z,81.00
2018-05-05T01:53:56.672Z,81.00
2018-05-05T01:56:24.141Z,81.30
2018-05-05T01:58:51.585Z,81.20
2018-05-05T02:01:19.017Z,80.80
2018-05-05T02:03:47.230Z,81.10
2018-05-05T02:06:14.681Z,81.10
2018-05-05T02:08:42.122Z,80.30
2018-05-05T02:11:10.325Z,80.50
2018-05-05T02:13:37.783Z,80.50
2018-05-05T02:16:05.211Z,80.40
2018-05-05T02:18:33.445Z,80.20
2018-05-05T02:21:00.876Z,80.20
2018-05-05T02:23:28.326Z,80.00
2018-05-05T02:25:55.776Z,81.20
2018-05-05T02:28:23.228Z,80.70
2018-05-05T02:30:50.665Z,80.80
2018-05-05T02:33:18.881Z,80.50
2018-05-05T02:35:46.332Z,80.40
2018-05-05T02:38:13.783Z,80.40
2018-05-05T02:40:41.229Z,80.30
2018-05-05T02:43:08.675Z,80.60
2018-05-05T02:45:36.894Z,79.90
2018-05-05T02:48:04.343Z,79.80
2018-05-05T02:50:31.801Z,79.50
2018-05-05T02:52:59.253Z,80.20
2018-05-05T02:55:26.710Z,79.70
2018-05-05T02:57:54.155Z,79.90
2018-05-05T03:00:21.620Z,80.30
2018-05-05T03:02:49.141Z,79.80
2018-05-05T03:05:17.255Z,79.90
2018-05-05T03:07:44.702Z,79.90
2018-05-05T03:10:12.146Z,80.30
2018-05-05T03:12:41.649Z,80.20
2018-05-05T03:15:09.099Z,80.20
2018-05-05T03:17:37.308Z,80.40
2018-05-05T03:20:04.748Z,80.40
2018-05-05T03:22:32.194Z,80.30
2018-05-05T03:25:00.405Z,80.60
2018-05-05T03:27:27.871Z,80.60
2018-05-05T03:29:55.383Z,80.30
2018-05-05T03:32:23.599Z,80.60
2018-05-05T03:34:51.049Z,80.60
2018-05-05T03:37:18.499Z,80.90
2018-05-05T03:39:45.942Z,80.80
2018-05-05T03:42:13.398Z,80.70
2018-05-05T03:44:40.836Z,80.70
2018-05-05T03:47:09.047Z,80.80
2018-05-05T03:49:36.497Z,80.80
2018-05-05T03:52:03.955Z,81.10
2018-05-05T03:54:31.397Z,81.10
2018-05-05T03:56:58.832Z,80.70
2018-05-05T03:59:38.879Z,80.60
2018-05-05T04:02:18.279Z,80.60
2018-05-05T04:07:43.124Z,80.60
2018-05-05T04:10:10.573Z,80.70
2018-05-05T04:12:38.016Z,81.00
2018-05-05T04:15:05.461Z,81.00
2018-05-05T04:17:32.903Z,81.40
2018-05-05T04:20:00.360Z,81.40
2018-05-05T04:22:27.817Z,81.40
2018-05-05T04:24:55.262Z,81.00
2018-05-05T04:27:22.704Z,81.00
2018-05-05T04:29:50.991Z,81.80
2018-05-05T04:32:19.227Z,81.10
2018-05-05T04:34:46.679Z,81.10
2018-05-05T04:37:14.883Z,82.00
2018-05-05T04:39:43.105Z,81.90
2018-05-05T04:42:10.557Z,81.90
2018-05-05T04:44:38.086Z,81.80
2018-05-05T04:47:05.451Z,80.60
2018-05-05T04:49:32.896Z,81.30
2018-05-05T04:52:01.108Z,80.40
2018-05-05T04:54:28.570Z,80.40
2018-05-05T04:56:56.017Z,80.20
2018-05-05T04:59:23.466Z,80.90
2018-05-05T05:01:50.908Z,79.90
2018-05-05T05:04:18.376Z,79.80
2018-05-05T05:06:46.000Z,79.40
2018-05-05T05:09:13.440Z,78.40
2018-05-05T05:11:40.881Z,78.60
2018-05-05T05:14:09.094Z,78.00
2018-05-05T05:16:36.526Z,78.00
2018-05-05T05:19:03.973Z,78.80
2018-05-05T05:21:31.407Z,77.60
2018-05-05T05:23:58.842Z,77.40
2018-05-05T05:26:26.291Z,77.20
2018-05-05T05:28:54.496Z,78.00
2018-05-05T05:31:21.950Z,78.00
2018-05-05T05:33:49.386Z,76.50
2018-05-05T05:36:17.610Z,76.90
2018-05-05T05:38:45.054Z,77.00
2018-05-05T05:41:12.726Z,76.10
2018-05-05T05:43:41.147Z,75.80
2018-05-05T05:46:09.362Z,76.70
2018-05-05T05:48:36.814Z,76.70
2018-05-05T05:51:04.259Z,75.40
2018-05-05T05:53:31.701Z,75.80
2018-05-05T05:55:59.917Z,74.00
2018-05-05T05:58:27.368Z,73.80
2018-05-05T06:00:54.815Z,75.00
2018-05-05T06:03:22.315Z,74.70
2018-05-05T06:05:49.746Z,73.90
2018-05-05T06:08:17.197Z,74.90
2018-05-05T06:10:44.636Z,73.80
2018-05-05T06:13:12.097Z,74.60
2018-05-05T06:15:39.530Z,74.60
2018-05-05T06:18:07.752Z,74.60
2018-05-05T06:20:35.211Z,74.60
2018-05-05T06:23:02.660Z,71.70
2018-05-05T06:25:31.111Z,72.90
2018-05-05T06:27:59.400Z,71.10
2018-05-05T06:30:26.933Z,71.10
2018-05-05T06:32:55.139Z,73.60
2018-05-05T06:35:22.749Z,73.50
2018-05-05T06:37:50.992Z,70.80
2018-05-05T06:40:18.440Z,70.60
2018-05-05T06:42:45.897Z,71.30
2018-05-05T06:45:13.338Z,70.90
2018-05-05T06:47:40.784Z,69.90
2018-05-05T06:50:08.235Z,70.60
2018-05-05T06:52:36.449Z,68.70
2018-05-05T06:55:03.902Z,68.60
2018-05-05T06:57:31.332Z,68.80
2018-05-05T06:59:58.793Z,68.80
2018-05-05T07:02:26.242Z,67.70
2018-05-05T07:04:54.457Z,66.60
2018-05-05T07:07:21.913Z,66.40
2018-05-05T07:09:49.364Z,68.00
2018-05-05T07:12:16.799Z,66.90
2018-05-05T07:14:44.261Z,67.60
2018-05-05T07:17:11.698Z,69.20
2018-05-05T07:19:39.921Z,65.40
2018-05-05T07:22:07.364Z,65.40
2018-05-05T07:24:34.823Z,64.30
2018-05-05T07:27:02.274Z,63.00
2018-05-05T07:29:29.720Z,64.10
2018-05-05T07:31:57.164Z,64.50
2018-05-05T07:34:25.379Z,62.20
2018-05-05T07:36:52.828Z,62.20
2018-05-05T07:39:20.291Z,62.80
2018-05-05T07:41:47.743Z,63.10
2018-05-05T07:44:15.200Z,61.60
2018-05-05T07:46:42.645Z,62.80
2018-05-05T07:49:10.097Z,61.90
2018-05-05T07:51:38.463Z,61.20
2018-05-05T07:54:08.680Z,61.00
2018-05-05T07:56:36.892Z,60.70
2018-05-05T07:59:04.351Z,60.70
2018-05-05T08:01:31.804Z,60.10
2018-05-05T08:03:59.259Z,59.10
2018-05-05T08:06:26.705Z,61.00
2018-05-05T08:08:54.176Z,59.00
2018-05-05T08:11:21.736Z,60.00
2018-05-05T08:13:49.097Z,60.00
2018-05-05T08:16:16.561Z,59.40
2018-05-05T08:18:44.017Z,59.90
2018-05-05T08:21:11.465Z,59.70
2018-05-05T08:23:38.907Z,59.20
2018-05-05T08:26:06.344Z,60.60
2018-05-05T08:28:34.560Z,61.20
2018-05-05T08:31:02.013Z,61.30
2018-05-05T08:33:29.458Z,59.40
2018-05-05T08:35:57.746Z,60.40
2018-05-05T08:38:25.193Z,59.70
2018-05-05T08:40:52.645Z,58.70
2018-05-05T08:43:20.166Z,59.00
2018-05-05T08:45:47.560Z,58.20
2018-05-05T08:48:16.975Z,57.90
2018-05-05T08:50:44.404Z,58.40
2018-05-05T08:53:12.626Z,57.60
2018-05-05T08:55:40.063Z,57.50
2018-05-05T08:58:07.521Z,57.70
2018-05-05T09:00:34.980Z,57.00
2018-05-05T09:03:02.512Z,58.50
2018-05-05T09:05:29.869Z,58.00
2018-05-05T09:07:57.325Z,56.60
2018-05-05T09:10:25.540Z,57.30
2018-05-05T09:12:52.984Z,57.20
2018-05-05T09:15:20.442Z,57.30
2018-05-05T09:17:47.908Z,59.20
2018-05-05T09:20:15.354Z,58.30
2018-05-05T09:22:42.810Z,55.70
2018-05-05T09:25:10.271Z,55.80
2018-05-05T09:27:37.725Z,55.90
2018-05-05T09:30:05.220Z,56.60
2018-05-05T09:32:32.652Z,56.50
2018-05-05T09:35:00.110Z,57.10
2018-05-05T09:37:27.549Z,59.00
2018-05-05T09:39:55.016Z,56.70
2018-05-05T09:42:22.469Z,57.90
2018-05-05T09:44:49.927Z,57.40
2018-05-05T09:47:17.367Z,56.00
2018-05-05T09:49:45.579Z,56.00
2018-05-05T09:52:13.032Z,56.00
2018-05-05T09:54:40.488Z,55.30
2018-05-05T09:57:07.936Z,56.40
2018-05-05T09:59:35.392Z,55.30
2018-05-05T10:02:02.831Z,55.60
2018-05-05T10:04:30.299Z,57.80
2018-05-05T10:06:57.755Z,57.70
2018-05-05T10:09:25.197Z,57.30
2018-05-05T10:11:52.647Z,56.00
2018-05-05T10:14:20.100Z,57.30
2018-05-05T10:16:48.316Z,57.50
2018-05-05T10:19:15.769Z,57.50
2018-05-05T10:21:43.215Z,55.20
2018-05-05T10:24:10.647Z,56.50
2018-05-05T10:26:38.861Z,57.00
2018-05-05T10:29:06.311Z,56.90
2018-05-05T10:31:33.762Z,56.70
2018-05-05T10:34:01.195Z,56.00
2018-05-05T10:36:29.401Z,55.40
2018-05-05T10:38:56.839Z,55.50
2018-05-05T10:41:24.288Z,55.80
2018-05-05T10:43:51.735Z,56.90
2018-05-05T10:46:19.959Z,54.70
2018-05-05T10:48:47.404Z,54.70
2018-05-05T10:51:14.949Z,55.90
2018-05-05T10:53:42.288Z,56.20
2018-05-05T10:56:10.501Z,55.00
2018-05-05T10:58:37.963Z,55.00
2018-05-05T11:01:05.403Z,56.60
2018-05-05T11:03:32.853Z,56.70
2018-05-05T11:06:00.304Z,55.20
2018-05-05T11:08:27.844Z,54.30
2018-05-05T11:10:55.236Z,55.10
2018-05-05T11:13:22.698Z,55.30
2018-05-05T11:15:50.153Z,54.30
2018-05-05T11:18:17.642Z,55.20
2018-05-05T11:20:45.080Z,55.10
2018-05-05T11:23:12.542Z,55.10
2018-05-05T11:25:40.006Z,54.40
2018-05-05T11:28:07.465Z,54.90
2018-05-05T11:30:35.899Z,54.50
2018-05-05T11:33:03.349Z,57.10
2018-05-05T11:35:31.568Z,55.60
2018-05-05T11:37:59.786Z,55.00
2018-05-05T11:40:27.237Z,55.30
2018-05-05T11:42:55.498Z,55.30
2018-05-05T11:45:22.943Z,55.30
2018-05-05T11:47:50.389Z,56.30
2018-05-05T11:50:17.852Z,54.70
2018-05-05T11:52:45.302Z,56.30
2018-05-05T11:55:13.795Z,57.60
2018-05-05T11:57:42.225Z,58.20
2018-05-05T12:00:09.682Z,56.40
2018-05-05T12:02:37.910Z,57.80
2018-05-05T12:05:05.381Z,57.90
2018-05-05T12:07:32.833Z,57.60
2018-05-05T12:10:00.292Z,56.10
2018-05-05T12:12:27.733Z,58.40
2018-05-05T12:14:55.176Z,57.10
2018-05-05T12:17:22.701Z,57.30
2018-05-05T12:19:50.908Z,58.20
2018-05-05T12:22:18.440Z,58.20
2018-05-05T12:24:45.836Z,57.40
2018-05-05T12:27:13.287Z,58.40
2018-05-05T12:29:40.747Z,57.70
2018-05-05T12:32:08.184Z,57.70
2018-05-05T12:34:35.632Z,58.50
2018-05-05T12:37:03.077Z,59.00
2018-05-05T12:39:31.281Z,57.90
2018-05-05T12:41:58.738Z,58.00
2018-05-05T12:44:26.184Z,59.00
2018-05-05T12:46:53.631Z,58.90
2018-05-05T12:49:21.080Z,58.30
2018-05-05T12:51:49.288Z,59.10
2018-05-05T12:54:16.738Z,59.10
2018-05-05T12:56:44.185Z,59.10
2018-05-05T12:59:11.635Z,58.90
2018-05-05T13:01:39.081Z,59.50
2018-05-05T13:04:07.297Z,60.50
2018-05-05T13:06:34.753Z,60.50
2018-05-05T13:09:03.331Z,58.80
2018-05-05T13:11:30.784Z,60.00
2018-05-05T13:13:58.303Z,59.10
2018-05-05T13:16:26.525Z,58.70
2018-05-05T13:18:53.981Z,58.70
2018-05-05T13:21:21.457Z,58.70
2018-05-05T13:23:48.985Z,59.60
2018-05-05T13:26:16.401Z,58.80
2018-05-05T13:28:43.804Z,58.90
2018-05-05T13:31:11.262Z,58.90
2018-05-05T13:33:38.718Z,58.80
2018-05-05T13:36:06.179Z,59.50
2018-05-05T13:38:34.655Z,59.40
2018-05-05T13:41:02.223Z,59.80
2018-05-05T13:43:29.760Z,59.20
2018-05-05T13:45:58.100Z,58.50
2018-05-05T13:48:25.457Z,58.90
2018-05-05T13:50:52.896Z,59.10
2018-05-05T13:53:20.404Z,59.00
2018-05-05T13:55:47.991Z,58.90
2018-05-05T13:58:15.488Z,58.90
2018-05-05T14:00:42.945Z,57.30
2018-05-05T14:03:10.443Z,57.80
2018-05-05T14:05:38.005Z,58.50
2018-05-05T14:08:05.711Z,58.10
2018-05-05T14:10:33.213Z,58.30
2018-05-05T14:13:01.417Z,57.90
2018-05-05T14:15:28.937Z,57.90
2018-05-05T14:17:57.143Z,58.10
2018-05-05T14:20:24.696Z,57.90
2018-05-05T14:22:52.144Z,57.30
2018-05-05T14:25:20.424Z,57.10
2018-05-05T14:27:47.868Z,57.00
2018-05-05T14:30:16.156Z,57.30
2018-05-05T14:32:43.607Z,57.10
2018-05-05T14:35:11.889Z,57.60
2018-05-05T14:37:39.330Z,57.60
2018-05-05T14:40:07.648Z,57.60
2018-05-05T14:42:35.153Z,57.60
2018-05-05T14:45:02.633Z,57.70
2018-05-05T14:47:30.905Z,57.40
2018-05-05T14:49:59.223Z,57.90
2018-05-05T14:52:26.656Z,57.90
2018-05-05T14:54:56.161Z,56.30
2018-05-05T14:57:23.630Z,57.70
2018-05-05T14:59:51.810Z,57.40
2018-05-05T15:02:19.333Z,57.30
2018-05-05T15:04:47.567Z,57.90
2018-05-05T15:07:14.988Z,57.70
2018-05-05T15:09:42.435Z,57.10
2018-05-05T15:12:09.867Z,56.60
2018-05-05T15:14:38.075Z,57.30
2018-05-05T15:17:07.470Z,57.30
2018-05-05T15:19:34.913Z,57.30
2018-05-05T15:22:03.191Z,57.10
2018-05-05T15:24:31.471Z,56.90
2018-05-05T15:26:59.690Z,57.30
2018-05-05T15:29:27.127Z,57.30
2018-05-05T15:31:54.569Z,58.40
2018-05-05T15:34:22.011Z,57.70
2018-05-05T15:36:51.213Z,58.00
2018-05-05T15:39:19.502Z,57.40
2018-05-05T15:41:46.964Z,57.40
2018-05-05T15:44:14.399Z,57.50
2018-05-05T15:46:43.771Z,57.60
2018-05-05T15:49:11.225Z,57.60
2018-05-05T15:51:38.688Z,58.10
2018-05-05T15:54:06.176Z,58.90
2018-05-05T15:56:34.461Z,57.60
2018-05-05T15:59:02.663Z,57.90
2018-05-05T16:01:30.125Z,57.90
2018-05-05T16:03:57.564Z,57.50
2018-05-05T16:06:25.000Z,58.10
2018-05-05T16:08:53.223Z,58.30
2018-05-05T16:11:20.745Z,58.20
2018-05-05T16:13:48.104Z,59.20
2018-05-05T16:16:15.531Z,58.50
2018-05-05T16:18:42.973Z,59.90
2018-05-05T16:21:10.417Z,59.70
2018-05-05T16:23:37.854Z,58.90
2018-05-05T16:26:05.292Z,59.50
2018-05-05T16:28:32.739Z,58.60
2018-05-05T16:31:00.940Z,59.60
2018-05-05T16:33:28.398Z,59.60
2018-05-05T16:35:55.836Z,59.90
2018-05-05T16:38:23.278Z,58.80
2018-05-05T16:40:51.492Z,58.50
2018-05-05T16:43:18.963Z,58.50
2018-05-05T16:45:46.402Z,59.80
2018-05-05T16:48:13.859Z,58.80
2018-05-05T16:50:41.304Z,59.00
2018-05-05T16:53:08.743Z,59.30
2018-05-05T16:55:36.957Z,58.60
2018-05-05T16:58:04.404Z,58.60
2018-05-05T17:00:31.843Z,58.50
2018-05-05T17:02:59.317Z,58.60
2018-05-05T17:05:27.508Z,57.90
2018-05-05T17:07:54.941Z,57.80
2018-05-05T17:10:22.388Z,58.40
2018-05-05T17:12:49.830Z,57.50
2018-05-05T17:15:18.064Z,57.60
2018-05-05T17:17:45.512Z,57.60
2018-05-05T17:20:13.026Z,57.50
2018-05-05T17:22:41.232Z,57.90
2018-05-05T17:25:08.679Z,57.80
2018-05-05T17:27:36.117Z,58.20
2018-05-05T17:30:04.327Z,59.70
2018-05-05T17:32:31.770Z,59.70
2018-05-05T17:34:59.212Z,58.90
2018-05-05T17:37:26.655Z,57.50
2018-05-05T17:39:54.868Z,57.30
2018-05-05T17:42:22.312Z,57.30
2018-05-05T17:44:49.758Z,58.40
2018-05-05T17:47:17.191Z,57.70
2018-05-05T17:49:45.472Z,58.30
2018-05-05T17:52:12.858Z,57.90
2018-05-05T17:54:40.292Z,58.20
2018-05-05T17:57:08.551Z,57.70
2018-05-05T17:59:35.953Z,57.70
2018-05-05T18:02:03.387Z,57.60
2018-05-05T18:04:30.871Z,57.80
2018-05-05T18:06:58.322Z,58.50
2018-05-05T18:09:25.750Z,58.40
2018-05-05T18:11:53.983Z,58.40
2018-05-05T18:14:21.403Z,58.30
2018-05-05T18:16:48.850Z,58.20
2018-05-05T18:19:17.050Z,58.70
2018-05-05T18:21:44.574Z,58.70
2018-05-05T18:24:11.944Z,59.30
2018-05-05T18:26:39.495Z,59.00
2018-05-05T18:29:06.845Z,59.20
2018-05-05T18:31:35.057Z,59.30
2018-05-05T18:34:02.584Z,59.10
2018-05-05T18:36:30.993Z,59.10
2018-05-05T18:38:58.442Z,59.00
2018-05-05T18:41:25.892Z,60.20
2018-05-05T18:43:53.331Z,59.30
2018-05-05T18:46:21.612Z,59.20
2018-05-05T18:48:49.856Z,59.70
2018-05-05T18:51:17.272Z,59.70
2018-05-05T18:53:44.718Z,59.40
2018-05-05T18:56:14.254Z,59.00
2018-05-05T18:58:41.793Z,59.10
2018-05-05T19:01:11.310Z,59.40
2018-05-05T19:03:38.837Z,59.60
2018-05-05T19:06:08.107Z,61.50
2018-05-05T19:08:35.490Z,61.50
2018-05-05T19:11:02.934Z,60.20
2018-05-05T19:13:30.376Z,59.70
2018-05-05T19:15:57.839Z,60.50
2018-05-05T19:18:25.279Z,60.50
2018-05-05T19:20:52.724Z,61.10
2018-05-05T19:23:20.181Z,61.10
2018-05-05T19:25:47.629Z,61.10
2018-05-05T19:28:15.072Z,62.00
2018-05-05T19:30:42.522Z,61.40
2018-05-05T19:33:09.969Z,62.00
2018-05-05T19:35:37.413Z,61.60
2018-05-05T19:38:05.696Z,61.90
2018-05-05T19:40:33.140Z,61.90
2018-05-05T19:43:01.361Z,62.50
2018-05-05T19:45:28.796Z,62.50
2018-05-05T19:47:56.252Z,62.60
2018-05-05T19:50:23.701Z,63.10
2018-05-05T19:52:51.150Z,63.00
2018-05-05T19:55:19.363Z,62.80
2018-05-05T19:57:46.807Z,62.80
2018-05-05T20:00:14.262Z,63.10
2018-05-05T20:02:41.705Z,63.70
2018-05-05T20:05:09.161Z,63.80
2018-05-05T20:07:37.373Z,63.90
2018-05-05T20:10:04.834Z,63.90
2018-05-05T20:12:32.320Z,64.00
2018-05-05T20:14:59.774Z,64.40
2018-05-05T20:17:27.223Z,64.90
2018-05-05T20:19:54.680Z,64.40
2018-05-05T20:22:22.130Z,64.60
2018-05-05T20:24:49.577Z,65.50
2018-05-05T20:27:17.035Z,64.80
2018-05-05T20:29:44.474Z,65.40
2018-05-05T20:32:11.919Z,65.40
2018-05-05T20:34:39.394Z,65.30
2018-05-05T20:37:06.813Z,65.50
2018-05-05T20:39:37.045Z,66.00
2018-05-05T20:42:04.532Z,66.00
2018-05-05T20:44:32.001Z,66.00
2018-05-05T20:46:59.448Z,66.80
2018-05-05T20:49:26.894Z,66.80
2018-05-05T20:51:54.344Z,66.80
2018-05-05T20:54:21.791Z,66.30
2018-05-05T20:56:49.259Z,66.50
2018-05-05T20:59:16.753Z,66.40
2018-05-05T21:01:44.183Z,66.90
2018-05-05T21:04:11.621Z,66.90
2018-05-05T21:06:39.061Z,67.20
2018-05-05T21:09:07.273Z,67.60
2018-05-05T21:11:35.731Z,67.50
2018-05-05T21:14:03.996Z,67.40
2018-05-05T21:16:33.199Z,67.40
2018-05-05T21:19:01.428Z,68.50
2018-05-05T21:23:51.814Z,68.10
2018-05-05T21:26:19.275Z,68.10
2018-05-05T21:28:46.726Z,68.20
2018-05-05T21:31:14.190Z,68.80
2018-05-05T21:33:41.623Z,68.80
2018-05-05T21:36:09.068Z,68.60
2018-05-05T21:38:37.283Z,68.80
2018-05-05T21:41:04.827Z,68.80
2018-05-05T21:43:32.269Z,70.00
2018-05-05T21:45:59.780Z,70.10
2018-05-05T21:48:27.927Z,69.90
2018-05-05T21:50:56.380Z,69.80
2018-05-05T21:53:24.585Z,70.50
2018-05-05T21:55:52.024Z,70.50
2018-05-05T21:58:19.478Z,70.10
2018-05-05T22:00:46.907Z,70.00
2018-05-05T22:03:15.127Z,70.50
2018-05-05T22:05:42.568Z,70.50
2018-05-05T22:08:10.019Z,70.80
2018-05-05T22:10:37.451Z,70.70
2018-05-05T22:13:05.700Z,71.30
2018-05-05T22:15:33.911Z,71.30
2018-05-05T22:18:02.124Z,71.30
2018-05-05T22:20:29.570Z,71.30
2018-05-05T22:22:57.014Z,72.00
2018-05-05T22:25:24.454Z,71.60
2018-05-05T22:27:52.662Z,71.90
2018-05-05T22:30:20.106Z,71.90
2018-05-05T22:32:47.566Z,72.70
2018-05-05T22:35:15.000Z,72.30
2018-05-05T22:37:43.217Z,72.60
2018-05-05T22:40:10.659Z,72.50
2018-05-05T22:42:38.103Z,72.50
2018-05-05T22:45:06.317Z,73.00
2018-05-05T22:47:33.761Z,73.00
2018-05-05T22:50:01.218Z,72.50
2018-05-05T22:52:28.688Z,72.60
2018-05-05T22:54:56.162Z,72.40
2018-05-05T22:57:23.615Z,73.70
2018-05-05T22:59:51.051Z,73.60
2018-05-05T23:02:18.505Z,72.90
2018-05-05T23:04:45.947Z,73.70
2018-05-05T23:07:13.387Z,73.20
2018-05-05T23:09:41.600Z,73.30
2018-05-05T23:12:09.035Z,73.10
2018-05-05T23:14:36.488Z,73.80
2018-05-05T23:17:03.925Z,73.20
2018-05-05T23:19:32.139Z,74.20
2018-05-05T23:21:59.581Z,74.20
2018-05-05T23:24:27.030Z,73.50
2018-05-05T23:26:55.237Z,74.10
2018-05-05T23:29:22.692Z,74.00
2018-05-05T23:31:50.135Z,74.00
2018-05-05T23:34:17.595Z,74.30
2018-05-05T23:36:45.025Z,74.20
2018-05-05T23:39:13.240Z,74.10
2018-05-05T23:41:40.692Z,74.10
2018-05-05T23:44:08.139Z,75.10
2018-05-05T23:46:35.587Z,75.30
2018-05-05T23:49:03.030Z,74.40
2018-05-05T23:51:31.244Z,75.00
2018-05-05T23:53:58.692Z,75.00
2018-05-05T23:56:26.151Z,74.90
2018-05-05T23:58:53.612Z,74.90
